Time;durP1;ratioP1;P1;durP2;ratioP2;P2;SDS_P1;SDS_P2;PMS_P1;PMS_P2;Temp;Humidity;BMP_temperature;BMP_pressure;BME280_temperature;BME280_humidity;BME280_pressure;Samples;Min_cycle;Max_cycle;Signal;HPM_P1;HPM_P2
2022/11/11 00:00:34;;;;;;;12.30;6.57;;;11.00;99.90;;;;;;5106181;27;20186;-69
2022/11/11 00:03:00;;;;;;;11.10;6.70;;;11.00;99.90;;;;;;5085267;27;21385;-68
2022/11/11 00:05:27;;;;;;;14.07;6.35;;;11.00;99.90;;;;;;5105191;27;20077;-69
2022/11/11 00:07:58;;;;;;;12.27;6.32;;;11.00;99.90;;;;;;5109131;27;20528;-69
2022/11/11 00:10:25;;;;;;;15.07;6.93;;;11.00;99.90;;;;;;5089563;28;20051;-69
2022/11/11 00:12:51;;;;;;;13.38;7.13;;;11.00;99.90;;;;;;5111126;27;20466;-68
2022/11/11 00:15:16;;;;;;;14.00;6.90;;;11.00;99.90;;;;;;5100748;28;20130;-69
2022/11/11 00:26:11;;;;;;;12.85;7.07;;;11.00;99.90;;;;;;5103565;28;20043;-69
2022/11/11 00:28:37;;;;;;;12.50;6.97;;;11.00;99.90;;;;;;5106035;28;20432;-68
2022/11/11 00:31:04;;;;;;;12.57;7.53;;;11.00;99.90;;;;;;5106561;28;20047;-68
2022/11/11 00:33:30;;;;;;;13.38;7.60;;;11.00;99.90;;;;;;5109120;28;20062;-69
2022/11/11 00:35:56;;;;;;;11.45;6.78;;;11.00;99.90;;;;;;5106916;28;20043;-69
2022/11/11 00:41:05;;;;;;;12.43;7.03;;;11.00;99.90;;;;;;5102730;28;20040;-68
2022/11/11 00:43:31;;;;;;;11.63;7.10;;;11.00;99.90;;;;;;5112448;28;20413;-68
2022/11/11 00:50:57;;;;;;;15.98;7.50;;;11.00;99.90;;;;;;5088811;28;20062;-69
2022/11/11 00:51:28;;;;;;;11.38;7.43;;;11.00;99.90;;;;;;5107793;28;20054;-68
2022/11/11 00:53:54;;;;;;;15.07;7.32;;;11.00;99.90;;;;;;5094097;28;20039;-69
2022/11/11 00:56:20;;;;;;;12.05;7.22;;;10.90;99.90;;;;;;5109317;28;20077;-69
2022/11/11 00:58:46;;;;;;;15.10;7.60;;;10.90;99.90;;;;;;5092870;28;20023;-69
2022/11/11 01:01:11;;;;;;;15.10;7.65;;;10.90;99.90;;;;;;5103544;27;20520;-69
2022/11/11 01:03:37;;;;;;;16.23;8.40;;;10.90;99.90;;;;;;5103737;28;20490;-68
2022/11/11 01:06:04;;;;;;;12.55;7.30;;;10.90;99.90;;;;;;5106776;28;20094;-69
2022/11/11 01:08:31;;;;;;;16.60;8.15;;;10.80;99.90;;;;;;5104030;28;20043;-69
2022/11/11 01:10:57;;;;;;;16.52;8.07;;;10.80;99.90;;;;;;5103329;28;20401;-69
2022/11/11 01:13:28;;;;;;;15.38;7.78;;;10.80;99.90;;;;;;5086770;28;20051;-68
2022/11/11 01:16:02;;;;;;;13.10;8.07;;;10.80;99.90;;;;;;5107618;27;20039;-69
2022/11/11 01:18:28;;;;;;;13.95;8.38;;;10.70;99.90;;;;;;5106508;27;20031;-69
2022/11/11 01:20:58;;;;;;;13.98;8.88;;;10.70;99.90;;;;;;5095146;27;20043;-69
2022/11/11 01:23:24;;;;;;;14.18;8.93;;;10.60;99.90;;;;;;5109663;27;20126;-69
2022/11/11 01:25:51;;;;;;;15.63;8.70;;;10.50;99.90;;;;;;5114558;27;20475;-69
2022/11/11 01:28:17;;;;;;;16.63;8.82;;;10.50;99.90;;;;;;5109247;27;20130;-69
2022/11/11 01:30:43;;;;;;;18.63;9.27;;;10.40;99.90;;;;;;5111686;27;20035;-69
2022/11/11 01:33:10;;;;;;;15.68;9.50;;;10.30;99.90;;;;;;5112886;27;20092;-69
2022/11/11 01:35:40;;;;;;;16.13;9.77;;;10.30;99.90;;;;;;5112638;27;20051;-69
2022/11/11 01:38:07;;;;;;;16.45;11.05;;;10.30;99.90;;;;;;5109816;27;20478;-68
2022/11/11 01:40:43;;;;;;;14.43;9.60;;;10.20;99.90;;;;;;5113504;27;20039;-69
2022/11/11 01:43:12;;;;;;;19.65;10.38;;;10.20;99.90;;;;;;5113574;27;20083;-68
2022/11/11 01:45:54;;;;;;;15.80;10.20;;;10.20;99.90;;;;;;5112766;27;20133;-69
2022/11/11 01:51:41;;;;;;;20.80;10.45;;;10.10;99.90;;;;;;5110740;27;20636;-68
2022/11/11 01:54:14;;;;;;;18.65;10.50;;;10.10;99.90;;;;;;5012819;28;20049;-69
2022/11/11 01:56:42;;;;;;;17.65;10.95;;;10.10;99.90;;;;;;5013463;28;20080;-68
2022/11/11 01:59:11;;;;;;;21.90;11.20;;;10.00;99.90;;;;;;5009876;28;20055;-69
2022/11/11 02:01:37;;;;;;;17.30;11.90;;;10.10;99.90;;;;;;5009744;28;20112;-68
2022/11/11 02:06:53;;;;;;;20.52;11.52;;;10.00;99.90;;;;;;5011781;28;20045;-69
2022/11/11 02:09:21;;;;;;;20.48;12.23;;;10.00;99.90;;;;;;5007444;28;20132;-69
2022/11/11 02:14:41;;;;;;;19.73;13.10;;;9.90;99.90;;;;;;5009438;28;20559;-69
2022/11/11 02:17:10;;;;;;;22.52;13.95;;;9.90;99.90;;;;;;5009182;28;20073;-69
2022/11/11 02:19:50;;;;;;;22.65;13.57;;;9.90;99.90;;;;;;5011542;28;20048;-69
2022/11/11 02:22:26;;;;;;;21.00;13.85;;;9.90;99.90;;;;;;4995214;28;20172;-69
2022/11/11 02:24:54;;;;;;;20.95;14.00;;;9.80;99.90;;;;;;5011726;28;20137;-69
2022/11/11 02:27:22;;;;;;;20.15;14.32;;;9.90;99.90;;;;;;5011101;28;20405;-69
2022/11/11 02:29:51;;;;;;;24.25;15.50;;;9.90;99.90;;;;;;5010664;28;20042;-68
2022/11/11 02:32:17;;;;;;;24.77;15.30;;;9.90;99.90;;;;;;5117142;27;20047;-69
2022/11/11 02:34:43;;;;;;;22.55;14.65;;;9.90;99.90;;;;;;5114642;27;20056;-68
2022/11/11 02:37:09;;;;;;;26.70;16.75;;;9.80;99.90;;;;;;5108553;27;20040;-69
2022/11/11 02:39:42;;;;;;;22.88;15.07;;;9.80;99.90;;;;;;5108015;27;20031;-68
2022/11/11 02:42:09;;;;;;;24.52;15.90;;;9.80;99.90;;;;;;5109464;27;20057;-68
2022/11/11 02:44:36;;;;;;;25.67;16.15;;;9.80;99.90;;;;;;5114088;27;20380;-69
2022/11/11 02:47:03;;;;;;;25.65;16.88;;;9.80;99.90;;;;;;5110356;27;20481;-69
2022/11/11 02:49:29;;;;;;;30.15;16.88;;;9.80;99.90;;;;;;5112520;27;20045;-69
2022/11/11 02:51:54;;;;;;;24.83;17.20;;;9.80;99.90;;;;;;5104920;27;20040;-68
2022/11/11 02:54:20;;;;;;;26.13;18.13;;;9.80;99.90;;;;;;5102016;27;20076;-69
2022/11/11 02:59:30;;;;;;;28.10;16.98;;;9.80;99.90;;;;;;5111650;27;20039;-68
2022/11/11 03:01:56;;;;;;;29.08;17.90;;;9.70;99.90;;;;;;5107393;27;20716;-69
2022/11/11 03:04:21;;;;;;;26.35;17.40;;;9.70;99.90;;;;;;5111850;27;20043;-69
2022/11/11 03:06:47;;;;;;;24.02;17.42;;;9.70;99.90;;;;;;5107725;27;20070;-68
2022/11/11 03:09:13;;;;;;;25.13;17.38;;;9.70;99.90;;;;;;5110312;27;20485;-68
2022/11/11 03:11:38;;;;;;;27.55;18.10;;;9.70;99.90;;;;;;5106338;27;20176;-69
2022/11/11 03:14:04;;;;;;;26.80;17.48;;;9.60;99.90;;;;;;5104657;27;20043;-68
2022/11/11 03:19:14;;;;;;;27.52;17.40;;;9.60;99.90;;;;;;5111041;27;20054;-68
2022/11/11 03:21:40;;;;;;;28.40;19.15;;;9.60;99.90;;;;;;5107512;27;20043;-68
2022/11/11 03:24:06;;;;;;;27.33;18.73;;;9.60;99.90;;;;;;5105587;27;20158;-68
2022/11/11 03:26:31;;;;;;;26.23;18.83;;;9.60;99.90;;;;;;5107162;27;20130;-68
2022/11/11 03:28:57;;;;;;;33.25;20.20;;;9.60;99.90;;;;;;5108982;27;20054;-69
2022/11/11 03:31:28;;;;;;;29.15;20.15;;;9.60;99.90;;;;;;5107853;27;20059;-68
2022/11/11 03:33:54;;;;;;;28.35;19.52;;;9.60;99.90;;;;;;5106939;27;20046;-69
2022/11/11 03:36:19;;;;;;;30.27;19.70;;;9.60;99.90;;;;;;5110062;27;20122;-68
2022/11/11 03:38:45;;;;;;;29.85;18.63;;;9.60;99.90;;;;;;5111959;27;20035;-68
2022/11/11 03:41:10;;;;;;;27.58;18.90;;;9.70;99.90;;;;;;5110532;27;20496;-68
2022/11/11 03:43:36;;;;;;;32.92;20.38;;;9.70;99.90;;;;;;5108643;27;20043;-69
2022/11/11 03:46:03;;;;;;;32.80;20.17;;;9.70;99.90;;;;;;5106772;27;20043;-69
2022/11/11 03:48:32;;;;;;;28.13;20.42;;;9.70;99.90;;;;;;5111179;27;20039;-68
2022/11/11 03:50:57;;;;;;;27.33;19.58;;;9.70;99.90;;;;;;5107379;27;20168;-68
2022/11/11 03:53:23;;;;;;;29.67;20.20;;;9.70;99.90;;;;;;5100535;27;20134;-69
2022/11/11 03:55:50;;;;;;;30.67;20.38;;;9.70;99.90;;;;;;5090616;27;20051;-68
2022/11/11 03:58:16;;;;;;;30.27;19.83;;;9.70;99.90;;;;;;5126658;27;20080;-68
2022/11/11 04:00:43;;;;;;;29.08;20.77;;;9.80;99.90;;;;;;5110760;27;20043;-69
2022/11/11 04:11:39;;;;;;;29.15;20.52;;;9.90;99.90;;;;;;5111220;27;20058;-68
2022/11/11 04:16:52;;;;;;;35.97;22.90;;;10.00;99.90;;;;;;5104987;27;20043;-68
2022/11/11 04:22:02;;;;;;;32.15;22.02;;;10.10;99.90;;;;;;5110181;27;21082;-69
2022/11/11 04:27:15;;;;;;;32.40;21.80;;;10.20;99.90;;;;;;5110503;28;20130;-69
2022/11/11 04:29:41;;;;;;;30.92;21.73;;;10.20;99.90;;;;;;5110030;27;20047;-68
2022/11/11 04:34:57;;;;;;;34.72;21.42;;;10.20;99.90;;;;;;5108437;28;20467;-68
2022/11/11 04:37:25;;;;;;;34.25;21.95;;;10.20;99.90;;;;;;5108693;28;20085;-69
2022/11/11 04:42:37;;;;;;;29.50;21.38;;;10.30;99.90;;;;;;5108839;28;20035;-69
2022/11/11 04:47:57;;;;;;;32.20;22.65;;;10.30;99.90;;;;;;5106634;28;20060;-68
2022/11/11 04:50:25;;;;;;;31.10;21.55;;;10.30;99.90;;;;;;5093829;28;20039;-69
2022/11/11 04:52:51;;;;;;;33.67;21.63;;;10.30;99.90;;;;;;5108252;27;20062;-68
2022/11/11 04:58:01;;;;;;;32.05;22.02;;;10.30;99.90;;;;;;5114104;27;20046;-69
2022/11/11 05:00:27;;;;;;;34.67;21.60;;;10.30;99.90;;;;;;5113030;27;20031;-69
2022/11/11 05:08:55;;;;;;;31.33;21.02;;;10.30;99.90;;;;;;5030686;28;20443;-68
2022/11/11 05:11:28;;;;;;;32.03;22.02;;;10.20;99.90;;;;;;5017777;28;20134;-69
2022/11/11 05:22:37;;;;;;;32.33;22.38;;;10.20;99.90;;;;;;5031166;28;20211;-68
2022/11/11 05:27:47;;;;;;;33.92;22.05;;;10.20;99.90;;;;;;5031751;28;20479;-68
2022/11/11 05:30:14;;;;;;;30.65;21.48;;;10.10;99.90;;;;;;5029689;28;20047;-68
2022/11/11 05:32:40;;;;;;;34.83;22.63;;;10.10;99.90;;;;;;5029969;28;20434;-68
2022/11/11 05:35:08;;;;;;;37.33;22.20;;;10.20;99.90;;;;;;5025883;28;20087;-68
2022/11/11 05:37:33;;;;;;;32.35;21.30;;;10.20;99.90;;;;;;5048062;28;20045;-68
2022/11/11 05:39:59;;;;;;;31.70;21.38;;;10.20;99.90;;;;;;5029383;28;20095;-69
2022/11/11 05:42:25;;;;;;;35.80;21.55;;;10.20;99.90;;;;;;5056850;27;20047;-68
2022/11/11 05:44:51;;;;;;;33.38;22.30;;;10.20;99.90;;;;;;5107471;27;20111;-69
2022/11/11 05:47:16;;;;;;;31.60;20.85;;;10.20;99.90;;;;;;5113422;27;20038;-69
2022/11/11 05:49:42;;;;;;;29.70;21.70;;;10.20;99.90;;;;;;5109508;27;20042;-68
2022/11/11 05:52:10;;;;;;;30.98;20.95;;;10.20;99.90;;;;;;5102071;27;20058;-68
2022/11/11 05:54:35;;;;;;;32.28;20.30;;;10.20;99.90;;;;;;5108528;27;20105;-68
2022/11/11 05:57:02;;;;;;;32.20;20.88;;;10.20;99.90;;;;;;5103485;27;20468;-68
2022/11/11 05:59:28;;;;;;;31.25;19.98;;;10.30;99.90;;;;;;5113130;27;20054;-69
2022/11/11 06:01:54;;;;;;;31.88;20.08;;;10.30;99.90;;;;;;5105366;27;20057;-69
2022/11/11 06:04:20;;;;;;;29.27;20.42;;;10.30;99.90;;;;;;5111927;27;20409;-69
2022/11/11 06:06:45;;;;;;;31.85;20.55;;;10.30;99.90;;;;;;5088714;27;20051;-69
2022/11/11 06:09:11;;;;;;;33.00;20.60;;;10.30;99.90;;;;;;5114417;27;20066;-69
2022/11/11 06:11:37;;;;;;;28.42;19.27;;;10.30;99.90;;;;;;5108744;27;20043;-68
2022/11/11 06:14:03;;;;;;;31.20;19.77;;;10.30;99.90;;;;;;5108877;27;20027;-69
2022/11/11 06:16:28;;;;;;;28.30;19.65;;;10.30;99.90;;;;;;5109639;27;20074;-68
2022/11/11 06:18:54;;;;;;;33.15;19.42;;;10.30;99.90;;;;;;5110676;27;20081;-68
2022/11/11 06:21:20;;;;;;;29.20;19.30;;;10.30;99.90;;;;;;5112420;27;20031;-68
2022/11/11 06:23:45;;;;;;;29.35;18.60;;;10.30;99.90;;;;;;5110692;27;20123;-69
2022/11/11 06:26:12;;;;;;;31.67;18.35;;;10.30;99.90;;;;;;5112051;27;20155;-71
2022/11/11 06:28:49;;;;;;;26.05;18.17;;;10.30;99.90;;;;;;5107273;27;20099;-70
2022/11/11 06:31:22;;;;;;;27.95;18.45;;;10.30;99.90;;;;;;5093712;27;20121;-70
2022/11/11 06:33:48;;;;;;;30.70;18.85;;;10.30;99.90;;;;;;5110268;27;20059;-69
2022/11/11 06:36:16;;;;;;;27.90;18.02;;;10.30;99.90;;;;;;5095582;27;20122;-69
2022/11/11 06:38:42;;;;;;;26.55;18.83;;;10.30;99.90;;;;;;5115072;27;20042;-70
2022/11/11 06:41:11;;;;;;;26.30;17.75;;;10.30;99.90;;;;;;5112335;27;20039;-69
2022/11/11 06:43:37;;;;;;;25.27;17.23;;;10.30;99.90;;;;;;5112435;27;20395;-70
2022/11/11 06:46:03;;;;;;;25.15;17.67;;;10.30;99.90;;;;;;5109984;27;20035;-70
2022/11/11 06:48:30;;;;;;;26.35;18.05;;;10.40;99.90;;;;;;5111935;27;20097;-70
2022/11/11 06:51:02;;;;;;;26.55;18.38;;;10.40;99.90;;;;;;5112205;27;20064;-70
2022/11/11 06:53:28;;;;;;;;;;;10.40;99.90;;;;;;5093688;27;20054;-70
2022/11/11 06:55:54;;;;;;;26.25;17.17;;;10.40;99.90;;;;;;5090885;27;20008;-71
2022/11/11 06:58:20;;;;;;;27.80;17.98;;;10.30;99.90;;;;;;5088505;27;20080;-70
2022/11/11 07:00:47;;;;;;;25.95;17.63;;;10.40;99.90;;;;;;5091569;27;20108;-70
2022/11/11 07:03:15;;;;;;;30.10;17.25;;;10.40;99.90;;;;;;5114022;27;20485;-71
2022/11/11 07:05:42;;;;;;;25.55;18.70;;;10.40;99.90;;;;;;5110674;27;20442;-71
2022/11/11 07:08:10;;;;;;;33.10;18.63;;;10.40;99.90;;;;;;5112677;27;20404;-70
2022/11/11 07:10:38;;;;;;;25.67;17.58;;;10.40;99.90;;;;;;5092807;27;20062;-71
2022/11/11 07:13:07;;;;;;;29.42;17.95;;;10.40;99.90;;;;;;5112649;27;20039;-69
2022/11/11 07:15:33;;;;;;;28.52;17.10;;;10.40;99.90;;;;;;5110919;27;20035;-70
2022/11/11 07:17:59;;;;;;;25.48;16.20;;;10.40;99.90;;;;;;5087106;27;20130;-71
2022/11/11 07:20:25;;;;;;;26.92;17.98;;;10.40;99.90;;;;;;5113727;27;20458;-70
2022/11/11 07:22:51;;;;;;;25.23;17.15;;;10.40;99.90;;;;;;5092366;27;20040;-71
2022/11/11 07:25:17;;;;;;;26.48;17.17;;;10.40;99.90;;;;;;5111236;27;20419;-71
2022/11/11 07:27:42;;;;;;;28.40;16.88;;;10.40;99.90;;;;;;5113570;27;20529;-70
2022/11/11 07:30:10;;;;;;;25.15;17.73;;;10.40;99.90;;;;;;5109244;27;20081;-69
2022/11/11 07:32:36;;;;;;;23.58;17.73;;;10.40;99.90;;;;;;5106216;27;20781;-69
2022/11/11 07:35:03;;;;;;;26.65;18.13;;;10.40;99.90;;;;;;5110703;27;20066;-70
2022/11/11 07:37:30;;;;;;;24.98;16.40;;;10.40;99.90;;;;;;5111572;27;20444;-71
2022/11/11 07:39:55;;;;;;;25.13;17.00;;;10.40;99.90;;;;;;5111424;27;20035;-71
2022/11/11 07:42:21;;;;;;;25.75;16.63;;;10.40;99.90;;;;;;5110143;27;20053;-70
2022/11/11 07:44:47;;;;;;;23.45;16.70;;;10.50;99.90;;;;;;5109728;27;20031;-70
2022/11/11 07:47:12;;;;;;;24.15;15.75;;;10.40;99.90;;;;;;5112173;27;20083;-71
2022/11/11 07:49:38;;;;;;;24.13;17.25;;;10.50;99.90;;;;;;5111810;27;20066;-69
2022/11/11 07:52:04;;;;;;;23.05;16.95;;;10.50;99.90;;;;;;5091974;27;20043;-71
2022/11/11 07:54:30;;;;;;;25.77;16.92;;;10.50;99.90;;;;;;5107556;27;20043;-71
2022/11/11 07:56:55;;;;;;;25.73;16.73;;;10.50;99.90;;;;;;5093315;27;21093;-70
2022/11/11 07:59:21;;;;;;;23.65;16.15;;;10.50;99.90;;;;;;5109627;27;20047;-70
2022/11/11 08:01:47;;;;;;;21.67;16.20;;;10.60;99.90;;;;;;5107942;27;22384;-70
2022/11/11 08:04:12;;;;;;;23.60;15.90;;;10.60;99.90;;;;;;5108372;27;20030;-70
2022/11/11 08:06:38;;;;;;;25.73;15.52;;;10.60;99.90;;;;;;5109327;27;20058;-71
2022/11/11 08:09:03;;;;;;;22.02;14.70;;;10.60;99.90;;;;;;5107675;27;20042;-71
2022/11/11 08:14:13;;;;;;;22.08;15.77;;;10.60;99.90;;;;;;5108502;27;20450;-71
2022/11/11 08:16:38;;;;;;;20.77;14.18;;;10.60;99.90;;;;;;5110124;27;20134;-71
2022/11/11 08:19:04;;;;;;;22.98;14.30;;;10.70;99.90;;;;;;5094085;27;20062;-72
2022/11/11 08:21:30;;;;;;;20.15;14.27;;;10.70;99.90;;;;;;5111531;27;20493;-71
2022/11/11 08:23:55;;;;;;;19.23;14.05;;;10.70;99.90;;;;;;5110316;27;20043;-71
2022/11/11 08:26:22;;;;;;;22.48;15.18;;;10.70;99.90;;;;;;5109731;27;20055;-71
2022/11/11 08:28:48;;;;;;;20.02;13.52;;;10.70;99.90;;;;;;5109484;27;20053;-70
2022/11/11 08:31:14;;;;;;;19.65;13.30;;;10.80;99.90;;;;;;5110550;27;20035;-71
2022/11/11 08:33:39;;;;;;;18.88;13.50;;;10.80;99.90;;;;;;5129538;28;20042;-71
2022/11/11 08:36:06;;;;;;;19.85;13.77;;;10.80;99.90;;;;;;5111727;28;20090;-72
2022/11/11 08:38:33;;;;;;;21.45;13.68;;;10.90;99.90;;;;;;5111805;28;20035;-71
2022/11/11 08:41:00;;;;;;;21.90;13.43;;;10.90;99.90;;;;;;5109730;28;20080;-71
2022/11/11 08:43:26;;;;;;;21.17;12.98;;;10.90;99.90;;;;;;5110617;28;20028;-71
2022/11/11 08:45:52;;;;;;;20.10;13.23;;;11.00;99.90;;;;;;5091978;28;20562;-71
2022/11/11 08:48:18;;;;;;;17.35;13.02;;;11.00;99.90;;;;;;5108858;28;20038;-71
2022/11/11 08:50:44;;;;;;;19.67;12.45;;;11.00;99.90;;;;;;5094086;28;20043;-71
2022/11/11 08:53:10;;;;;;;20.42;13.50;;;10.90;99.90;;;;;;5110598;28;20118;-71
2022/11/11 08:55:36;;;;;;;18.52;12.35;;;11.00;99.90;;;;;;5110382;28;20069;-71
2022/11/11 08:58:05;;;;;;;16.63;12.65;;;10.90;99.90;;;;;;5110179;28;20043;-71
2022/11/11 09:00:32;;;;;;;15.30;12.50;;;10.90;99.90;;;;;;5108004;28;20096;-71
2022/11/11 09:03:08;;;;;;;20.10;12.05;;;11.00;99.90;;;;;;5107833;28;20046;-71
2022/11/11 09:05:36;;;;;;;20.50;13.57;;;11.00;99.90;;;;;;5110393;28;20053;-72
2022/11/11 09:08:06;;;;;;;18.70;12.52;;;11.00;99.90;;;;;;5111972;28;20126;-71
2022/11/11 09:10:32;;;;;;;15.20;11.88;;;11.10;99.90;;;;;;5105918;27;20428;-71
2022/11/11 09:12:58;;;;;;;19.60;12.93;;;11.10;99.90;;;;;;5108705;28;20386;-71
2022/11/11 09:15:25;;;;;;;17.92;11.93;;;11.20;99.90;;;;;;5110199;27;20530;-72
2022/11/11 09:17:51;;;;;;;18.15;11.45;;;11.10;99.90;;;;;;5110049;28;20043;-71
2022/11/11 09:20:17;;;;;;;16.95;12.15;;;11.10;99.90;;;;;;5108214;28;20435;-71
2022/11/11 09:22:45;;;;;;;18.95;12.18;;;11.10;99.90;;;;;;5112173;28;20074;-71
2022/11/11 09:25:11;;;;;;;18.45;12.20;;;11.10;99.90;;;;;;5110392;28;20454;-70
2022/11/11 09:27:37;;;;;;;20.88;13.00;;;11.10;99.90;;;;;;5093436;28;20043;-71
2022/11/11 09:30:04;;;;;;;16.35;12.00;;;11.20;99.90;;;;;;5107084;28;20043;-71
2022/11/11 09:32:30;;;;;;;18.35;12.43;;;11.10;99.90;;;;;;5108892;28;20066;-71
2022/11/11 09:34:55;;;;;;;16.02;12.07;;;11.20;99.90;;;;;;5108612;28;20086;-71
2022/11/11 09:37:21;;;;;;;18.85;12.02;;;11.20;99.90;;;;;;5111043;27;20557;-71
2022/11/11 09:39:47;;;;;;;18.60;12.27;;;11.20;99.90;;;;;;5112166;27;20077;-72
2022/11/11 09:42:16;;;;;;;19.08;12.73;;;11.30;99.90;;;;;;5113957;27;20453;-71
2022/11/11 09:45:19;;;;;;;18.30;11.85;;;11.40;99.90;;;;;;5109346;27;20521;-71
2022/11/11 09:47:47;;;;;;;20.70;12.10;;;11.50;99.90;;;;;;5112784;27;20470;-72
2022/11/11 09:50:20;;;;;;;17.85;11.77;;;11.70;99.90;;;;;;5114170;27;20032;-71
2022/11/11 09:53:46;;;;;;;21.88;12.10;;;11.80;99.90;;;;;;5119854;27;20043;-70
2022/11/11 09:56:16;;;;;;;16.27;12.15;;;11.90;99.90;;;;;;5051534;28;20491;-71
2022/11/11 09:58:57;;;;;;;18.95;11.88;;;12.00;99.90;;;;;;5052442;28;20074;-71
2022/11/11 10:01:31;;;;;;;15.07;11.30;;;12.00;99.90;;;;;;5050514;28;20130;-71
2022/11/11 10:04:06;;;;;;;18.42;11.07;;;12.30;99.90;;;;;;5053019;28;20042;-71
2022/11/11 10:06:35;;;;;;;13.90;10.32;;;12.30;99.90;;;;;;5052469;28;20139;-71
2022/11/11 10:09:31;;;;;;;16.15;11.10;;;12.40;99.90;;;;;;5053198;28;20044;-72
2022/11/11 10:12:06;;;;;;;15.10;11.52;;;12.60;99.90;;;;;;5051079;28;20044;-71
2022/11/11 10:14:35;;;;;;;14.18;10.63;;;12.60;99.90;;;;;;5052872;28;20056;-72
2022/11/11 10:17:19;;;;;;;14.27;10.52;;;12.70;99.90;;;;;;5051352;28;20143;-71
2022/11/11 10:20:14;;;;;;;14.10;10.40;;;12.70;99.90;;;;;;5050032;28;20052;-71
2022/11/11 10:22:45;;;;;;;15.38;11.52;;;12.70;99.90;;;;;;5051320;28;20484;-71
2022/11/11 10:25:15;;;;;;;15.73;10.88;;;12.80;99.90;;;;;;5050097;28;20032;-71
2022/11/11 10:27:46;;;;;;;12.73;10.35;;;12.80;99.90;;;;;;5105962;27;20501;-71
2022/11/11 10:30:17;;;;;;;13.63;9.95;;;12.90;99.90;;;;;;5111819;27;20117;-71
2022/11/11 10:32:46;;;;;;;12.48;9.88;;;13.00;99.90;;;;;;5092755;27;20544;-71
2022/11/11 10:35:20;;;;;;;16.20;10.20;;;13.10;99.90;;;;;;5112882;27;20051;-71
2022/11/11 10:37:54;;;;;;;17.10;11.10;;;13.20;99.90;;;;;;5108248;27;20489;-71
2022/11/11 10:40:45;;;;;;;19.05;10.93;;;13.10;99.90;;;;;;5107951;27;20031;-71
2022/11/11 10:43:25;;;;;;;16.00;10.10;;;13.00;99.90;;;;;;5097541;27;20027;-70
2022/11/11 10:46:20;;;;;;;12.77;9.70;;;12.80;99.90;;;;;;5112080;27;20451;-72
2022/11/11 10:48:59;;;;;;;14.27;10.18;;;12.70;99.90;;;;;;5107239;27;20047;-71
2022/11/11 10:51:30;;;;;;;15.77;10.57;;;12.70;99.90;;;;;;5112265;27;20043;-71
2022/11/11 10:54:02;;;;;;;13.13;9.60;;;12.70;99.90;;;;;;5110869;27;20114;-72
2022/11/11 10:56:43;;;;;;;;;;;12.80;99.90;;;;;;5095852;27;20078;-71
2022/11/11 10:59:15;;;;;;;12.30;9.75;;;12.80;99.90;;;;;;5094745;27;19973;-71
2022/11/11 11:02:16;;;;;;;13.43;10.10;;;12.80;99.90;;;;;;5110103;27;20765;-71
2022/11/11 11:04:57;;;;;;;12.63;9.70;;;12.60;99.90;;;;;;5057691;28;20375;-70
2022/11/11 11:07:33;;;;;;;11.85;9.93;;;12.50;99.90;;;;;;5036367;28;20494;-71
2022/11/11 11:10:03;;;;;;;13.65;9.82;;;12.50;99.90;;;;;;5028437;28;20454;-71
2022/11/11 11:12:40;;;;;;;12.70;9.63;;;12.40;99.90;;;;;;5031861;28;20047;-71
2022/11/11 11:15:27;;;;;;;11.65;9.38;;;12.40;99.90;;;;;;5039015;28;20061;-72
2022/11/11 11:18:03;;;;;;;15.82;9.20;;;12.20;99.90;;;;;;5036335;28;20369;-71
2022/11/11 11:20:29;;;;;;;13.40;9.23;;;12.20;99.90;;;;;;5043084;28;20116;-71
2022/11/11 11:23:00;;;;;;;11.88;9.38;;;12.30;99.90;;;;;;5034936;28;20175;-71
2022/11/11 11:25:32;;;;;;;11.93;9.85;;;12.20;99.90;;;;;;5030771;28;20048;-71
2022/11/11 11:28:12;;;;;;;12.63;9.65;;;12.10;99.90;;;;;;5047075;28;20526;-72
2022/11/11 11:30:38;;;;;;;14.05;9.43;;;12.00;99.90;;;;;;5037033;28;20094;-71
2022/11/11 11:33:06;;;;;;;13.05;10.25;;;12.10;99.90;;;;;;5035337;28;20531;-71
2022/11/11 11:35:41;;;;;;;13.07;10.10;;;12.20;99.90;;;;;;5025253;28;20041;-70
2022/11/11 11:38:09;;;;;;;12.18;8.73;;;12.40;99.90;;;;;;5030460;28;20036;-70
2022/11/11 11:40:45;;;;;;;15.18;9.65;;;12.30;99.90;;;;;;5051200;27;20067;-71
2022/11/11 11:43:43;;;;;;;14.57;9.30;;;12.20;99.90;;;;;;5120157;27;20043;-71
2022/11/11 11:46:37;;;;;;;12.82;9.25;;;12.30;99.90;;;;;;5112017;27;20039;-71
2022/11/11 11:49:20;;;;;;;11.82;8.88;;;12.40;99.90;;;;;;5107914;27;20094;-71
2022/11/11 11:52:19;;;;;;;13.38;8.68;;;12.60;99.90;;;;;;5094743;27;20486;-71
2022/11/11 11:54:51;;;;;;;14.43;9.48;;;12.60;99.90;;;;;;5129025;27;20115;-71
2022/11/11 11:57:56;;;;;;;14.80;9.55;;;12.50;99.90;;;;;;5112827;27;20047;-71
2022/11/11 12:00:24;;;;;;;13.48;9.20;;;12.30;99.90;;;;;;5092730;27;20039;-71
2022/11/11 12:03:10;;;;;;;12.07;9.18;;;12.40;99.90;;;;;;5111287;27;20083;-70
2022/11/11 12:05:44;;;;;;;12.40;9.20;;;12.50;99.90;;;;;;5110223;27;20779;-71
2022/11/11 12:08:15;;;;;;;11.50;8.77;;;12.50;99.90;;;;;;5094667;27;20043;-71
2022/11/11 12:10:59;;;;;;;13.40;9.13;;;12.50;99.90;;;;;;5111572;27;20031;-71
2022/11/11 12:13:59;;;;;;;10.43;9.32;;;12.50;99.90;;;;;;5107527;28;20140;-71
2022/11/11 12:17:04;;;;;;;13.32;10.25;;;12.40;99.90;;;;;;5112314;27;20043;-71
2022/11/11 12:19:48;;;;;;;11.20;9.55;;;12.40;99.90;;;;;;5050065;28;20044;-70
2022/11/11 12:22:36;;;;;;;13.50;9.65;;;12.40;99.90;;;;;;5049961;28;20152;-71
2022/11/11 12:25:13;;;;;;;15.85;10.60;;;12.50;99.90;;;;;;5065239;28;20044;-71
2022/11/11 12:27:59;;;;;;;10.95;9.52;;;12.50;99.90;;;;;;5049451;28;20064;-71
2022/11/11 12:30:28;;;;;;;14.20;9.60;;;12.50;99.90;;;;;;5051718;28;20052;-71
2022/11/11 12:33:05;;;;;;;12.50;9.65;;;12.30;99.90;;;;;;5047465;28;20515;-71
2022/11/11 12:35:47;;;;;;;14.30;9.75;;;12.20;99.90;;;;;;5050701;28;20131;-71
2022/11/11 12:38:24;;;;;;;14.40;10.57;;;12.20;99.90;;;;;;5051161;28;20068;-71
2022/11/11 12:41:15;;;;;;;14.95;9.38;;;12.20;99.90;;;;;;5051080;28;20040;-71
2022/11/11 12:44:11;;;;;;;13.07;9.32;;;12.30;99.90;;;;;;5047934;28;20036;-70
2022/11/11 12:46:46;;;;;;;11.70;9.40;;;12.40;99.90;;;;;;4991582;28;20463;-72
2022/11/11 12:49:23;;;;;;;13.25;9.93;;;12.40;99.90;;;;;;5008697;28;20041;-71
2022/11/11 12:51:55;;;;;;;14.48;9.98;;;12.50;99.90;;;;;;5030051;28;20071;-71
2022/11/11 12:54:59;;;;;;;13.33;9.33;;;12.60;99.90;;;;;;5026073;28;20045;-71
2022/11/11 12:57:29;;;;;;;10.98;9.20;;;12.60;99.90;;;;;;5007188;28;20796;-71
2022/11/11 13:00:08;;;;;;;14.30;9.90;;;12.50;99.90;;;;;;5024409;28;20043;-71
2022/11/11 13:02:45;;;;;;;14.20;9.10;;;12.50;99.90;;;;;;5022783;28;20057;-71
2022/11/11 13:05:20;;;;;;;12.38;9.25;;;12.60;99.90;;;;;;5027606;28;20044;-71
2022/11/11 13:08:15;;;;;;;12.27;9.15;;;12.70;99.90;;;;;;5022349;28;20080;-71
2022/11/11 13:11:11;;;;;;;11.90;8.80;;;13.00;99.90;;;;;;4990825;28;20050;-72
2022/11/11 13:13:48;;;;;;;12.85;9.27;;;13.00;99.90;;;;;;4994314;28;20053;-72
2022/11/11 13:16:17;;;;;;;12.98;9.30;;;13.00;99.90;;;;;;4995479;28;20060;-71
2022/11/11 13:18:55;;;;;;;13.27;10.10;;;13.10;99.90;;;;;;4995450;28;20053;-72
2022/11/11 13:22:01;;;;;;;12.02;8.85;;;13.10;99.90;;;;;;4995007;28;20053;-72
2022/11/11 13:24:27;;;;;;;10.60;8.35;;;13.20;99.90;;;;;;5032054;28;20045;-72
2022/11/11 13:27:21;;;;;;;12.18;9.35;;;13.30;99.90;;;;;;5034726;28;20052;-71
2022/11/11 13:30:01;;;;;;;10.00;8.63;;;13.60;99.90;;;;;;5052778;28;20128;-72
2022/11/11 13:32:32;;;;;;;11.10;8.38;;;13.70;99.90;;;;;;5034581;28;20048;-71
2022/11/11 13:34:59;;;;;;;12.33;9.27;;;13.90;99.90;;;;;;5045872;28;20053;-72
2022/11/11 13:37:28;;;;;;;12.57;8.48;;;13.90;99.90;;;;;;5017908;28;20083;-71
2022/11/11 13:40:08;;;;;;;10.35;8.48;;;13.90;99.90;;;;;;5050007;28;20143;-71
2022/11/11 13:42:40;;;;;;;12.70;8.60;;;13.90;99.90;;;;;;5050178;28;20072;-71
2022/11/11 13:45:07;;;;;;;10.52;8.13;;;13.80;99.90;;;;;;5034569;28;20140;-72
2022/11/11 13:47:37;;;;;;;12.13;8.70;;;13.70;99.90;;;;;;5086574;27;20079;-71
2022/11/11 13:50:23;;;;;;;10.35;8.23;;;13.60;99.90;;;;;;5098720;27;20046;-72
2022/11/11 13:53:03;;;;;;;14.13;8.13;;;13.50;99.90;;;;;;5114599;27;20074;-71
2022/11/11 13:55:39;;;;;;;11.13;8.88;;;13.40;99.90;;;;;;5114514;27;20117;-72
2022/11/11 13:58:06;;;;;;;13.38;8.98;;;13.20;99.90;;;;;;5115060;27;20039;-71
2022/11/11 14:00:35;;;;;;;13.30;8.68;;;13.20;99.90;;;;;;5116286;27;20039;-71
2022/11/11 14:03:16;;;;;;;12.43;8.75;;;13.10;99.90;;;;;;5114597;27;20493;-71
2022/11/11 14:05:43;;;;;;;11.65;8.68;;;13.10;99.90;;;;;;5114802;27;20039;-71
2022/11/11 14:08:09;;;;;;;11.20;8.02;;;13.10;99.90;;;;;;5114386;27;20126;-71